Date,TemperatureHighF,TemperatureAvgF,TemperatureLowF,DewpointHighF,DewpointAvgF,DewpointLowF,HumidityHigh,HumidityAvg,HumidityLow,PressureMaxIn,PressureMinIn,WindSpeedMaxMPH,WindSpeedAvgMPH,GustSpeedMaxMPH,PrecipitationSumIn
2013-1-2,31,28,24,18,16,13,65,58,51,30.10,29.93,9,6,21,0.00
2013-1-3,30,22,14,20,8,2,67,56,40,30.17,30.05,9,5,22,0.00
2013-1-4,39,35,29,30,25,20,74,66,53,30.05,29.89,11,6,26,0.00
2013-1-5,43,35,24,27,25,21,89,65,48,30.30,29.92,10,5,24,0.00
2013-1-6,43,35,24,37,31,21,93,87,79,30.25,29.98,7,2,17,0.05
2013-1-7,43,37,27,34,30,25,95,75,56,30.34,30.00,7,4,14,0.00
2013-1-9,50,45,29,46,40,27,95,84,74,30.43,30.06,9,4,26,0.00
2013-1-10,46,43,37,39,29,26,80,58,45,30.54,30.13,11,6,22,0.00
2013-1-11,44,37,27,39,31,24,94,80,64,30.54,30.24,4,1,10,0.20
2013-1-12,46,43,40,45,42,39,96,95,93,30.24,30.13,3,1,7,0.06
2013-1-13,53,48,44,52,47,43,97,96,92,30.20,30.07,4,1,11,0.03
2013-1-14,55,52,45,54,48,34,97,88,59,30.26,29.98,8,3,20,0.00
2013-1-15,45,39,36,38,35,32,93,85,70,30.32,30.21,6,2,12,0.21
2013-1-16,41,39,37,40,37,33,96,93,78,30.25,29.73,7,2,12,0.64
2013-1-17,43,40,36,38,32,25,92,74,61,30.10,29.89,9,4,18,0.00
2013-1-18,36,25,11,28,10,-1,93,58,32,30.52,30.02,10,5,21,0.00
2013-1-19,49,42,11,45,33,6,87,72,65,30.47,29.99,9,5,26,0.02
2013-1-20,52,47,32,46,36,15,88,67,41,29.99,29.66,10,6,25,0.00
2013-1-21,32,29,26,29,17,10,93,63,43,30.14,29.79,8,3,20,0.00
2013-1-22,29,24,17,28,10,-3,93,59,33,30.11,29.76,11,6,24,0.01
2013-1-23,18,15,13,4,-1,-5,59,49,43,30.20,30.09,10,7,0,0.00
2013-1-24,20,18,15,0,-2,-4,45,40,35,30.26,30.11,12,9,25,0.00
2013-1-25,24,17,14,7,0,-5,53,46,41,30.35,30.22,10,7,26,0.00
2013-1-26,25,25,25,9,9,9,50,50,50,30.09,30.09,5,5,5,0.00
2013-1-27,30,28,26,8,7,5,45,40,34,30.50,30.39,6,4,14,0.00
2013-1-28,36,27,14,32,19,6,95,73,43,30.50,30.01,5,1,10,0.08
2013-1-29,38,35,33,35,33,31,95,93,88,30.18,30.00,4,2,8,0.08
2013-1-30,56,53,44,54,51,43,96,94,90,30.01,29.59,7,5,18,0.01
2013-1-31,57,47,34,55,38,14,95,72,42,29.67,29.14,13,9,37,0.39
2013-2-1,35,32,30,22,15,11,72,50,41,29.85,29.67,12,8,28,0.00
2013-2-2,33,32,30,28,22,17,90,69,57,30.16,30.08,6,4,16,0.00
2013-2-3,34,28,20,27,22,17,90,81,61,30.08,29.73,8,4,17,0.03
2013-2-4,30,27,26,23,18,14,85,68,51,29.85,29.75,9,6,19,0.00
2013-2-5,30,28,25,28,23,14,92,83,58,30.05,29.93,3,2,18,0.00
2013-2-6,39,34,30,32,26,10,94,75,42,30.31,29.92,9,3,17,0.05
2013-2-7,30,27,25,13,10,8,57,48,41,30.50,30.31,7,4,0,0.00
2013-2-8,34,34,34,32,32,32,94,93,93,30.12,29.97,6,5,14,0.16
2013-2-11,44,44,43,43,42,41,95,95,94,29.91,29.85,5,4,13,0.76
2013-2-12,42,38,35,34,30,28,86,74,69,29.93,29.77,8,4,18,0.01
2013-2-13,41,34,28,30,26,24,88,71,55,29.92,29.68,7,3,13,0.00
2013-2-14,42,34,22,32,28,20,94,80,49,30.06,29.70,7,2,13,0.18
2013-2-15,48,34,20,40,30,18,95,87,68,30.09,29.98,5,1,11,0.01
2013-2-16,38,32,26,34,30,25,96,93,79,29.98,29.64,7,3,15,0.13
2013-2-17,35,26,19,32,18,5,93,74,43,29.72,29.36,15,11,32,0.00
2013-2-18,32,25,18,14,7,5,59,47,33,30.23,29.72,13,10,29,0.00
2013-2-19,47,39,23,46,32,14,95,77,48,30.23,29.63,7,3,19,0.88
2013-2-20,44,38,34,43,32,20,95,80,55,29.73,29.60,11,7,23,0.01
2013-2-25,36,36,36,32,32,32,88,86,85,30.10,30.09,5,4,9,0.09
2013-2-26,45,43,42,28,26,24,58,51,46,30.36,30.31,4,3,10,0.00
2013-3-1,41,40,38,37,36,35,90,86,79,29.62,29.60,7,5,13,0.00
2013-3-4,38,35,32,26,24,23,72,65,58,29.67,29.63,9,7,18,0.00
2013-3-18,38,34,30,27,22,15,76,60,48,30.46,30.24,5,3,11,0.00
2013-3-19,46,38,34,44,36,27,95,91,72,30.24,29.51,10,5,21,0.90
2013-3-20,41,35,28,32,25,20,88,68,50,29.86,29.69,11,6,25,0.90
2013-3-21,42,33,24,30,27,23,94,80,53,29.86,29.59,8,3,18,0.00
2013-3-22,40,34,29,30,26,19,95,72,47,29.78,29.62,9,6,20,0.27
2013-3-23,44,38,33,26,24,19,73,56,38,29.82,29.68,11,8,24,0.27
2013-3-24,48,38,30,29,25,23,89,62,40,29.88,29.76,8,4,17,0.00
2013-3-25,46,37,28,36,31,26,93,78,61,29.78,29.46,8,4,21,0.05
2013-3-26,47,40,34,34,31,27,90,71,49,29.81,29.46,8,5,19,0.01
2013-3-27,51,40,26,34,29,24,91,65,41,29.87,29.77,8,3,19,0.01
2013-3-28,41,39,33,37,34,30,90,84,74,29.93,29.86,6,4,14,0.00
2013-3-30,54,48,41,36,32,28,83,55,39,30.13,30.05,7,4,15,0.00
2013-3-31,56,45,29,43,36,27,94,74,43,30.16,29.76,7,3,16,0.12
2013-4-1,55,47,38,46,41,17,95,80,40,29.82,29.61,9,6,21,0.07
2013-4-2,42,37,33,22,18,13,54,44,33,30.01,29.82,12,7,28,0.07
2013-4-3,45,38,33,27,18,14,51,43,34,30.20,29.99,11,8,24,0.00
2013-4-4,46,39,33,35,24,16,81,56,37,30.35,30.14,8,5,19,0.00
2013-4-5,53,44,40,43,37,28,92,77,50,30.14,29.67,7,2,15,0.11
2013-4-6,46,40,30,30,20,8,78,46,21,30.38,29.87,9,5,20,0.11
2013-4-7,49,39,22,42,33,20,94,78,51,30.37,30.11,7,3,16,0.00
2013-4-8,52,48,46,46,44,43,91,87,78,30.11,30.02,6,4,15,0.00
2013-4-9,67,60,50,52,50,47,95,72,54,29.97,29.89,11,7,22,0.01
2013-4-22,52,46,42,38,34,29,77,66,48,30.73,30.56,6,5,14,0.00
2013-4-23,47,44,42,45,42,36,94,91,77,30.56,30.00,9,5,22,1.10
2013-4-24,58,47,44,47,44,42,94,88,65,29.99,29.85,12,8,29,0.03
2013-5-2,68,58,41,49,44,38,92,64,40,30.47,30.38,4,2,11,0.00
2013-5-3,53,45,36,45,40,34,95,84,69,30.49,30.38,8,2,16,0.00
2013-5-4,54,44,36,44,40,34,95,88,66,30.37,30.33,5,1,12,0.00
2013-5-6,49,48,48,46,46,46,93,92,91,30.31,30.30,1,1,8,0.00
2013-5-9,65,58,53,60,55,52,96,90,83,29.99,29.91,4,2,9,0.02
2013-5-10,75,61,53,59,55,52,97,82,48,30.01,29.93,6,3,13,0.02
2013-5-11,64,59,55,60,57,54,96,93,80,29.99,29.75,6,3,22,0.31
2013-5-12,65,59,52,60,53,39,97,84,53,29.84,29.65,8,3,19,0.46
2013-5-13,56,52,42,42,37,30,72,56,43,30.03,29.85,9,4,22,0.46
2013-5-14,55,50,45,43,35,30,67,56,42,30.06,30.01,7,4,15,0.00
2013-5-21,76,65,56,69,61,54,94,86,75,29.98,29.90,7,2,16,0.00
2013-5-22,72,60,53,65,58,51,96,92,77,30.00,29.93,7,2,13,0.01
2013-5-23,71,64,60,66,62,59,97,92,82,30.00,29.91,10,3,21,0.13
2013-5-24,65,61,55,64,60,54,97,96,92,29.90,29.72,9,2,18,0.69
2013-5-25,55,51,43,54,49,42,95,93,89,29.79,29.70,12,4,19,0.22
2013-5-26,59,51,44,45,42,39,92,71,54,30.13,29.77,15,6,22,0.23
2013-5-27,66,57,44,48,44,41,94,64,45,30.20,30.13,14,5,24,0.00
2013-5-28,69,58,41,56,50,39,96,76,52,30.27,30.20,5,1,10,0.03
2013-5-29,67,60,56,63,58,55,96,93,83,30.25,30.06,15,2,15,0.51
2013-5-30,82,69,59,70,63,58,96,81,61,30.13,30.05,11,3,18,0.67
2013-5-31,88,74,60,72,64,58,92,73,46,30.12,30.02,10,3,20,0.00
2013-6-1,80,70,60,69,63,58,94,81,63,30.05,29.97,15,3,18,0.00
2013-6-2,73,67,63,67,63,61,94,87,78,29.99,29.88,10,3,18,0.00
2013-6-3,68,64,62,67,63,61,97,95,93,29.91,29.83,10,2,18,0.88
2013-6-4,70,62,50,61,50,44,97,69,44,30.09,29.82,8,3,15,0.88
2013-6-5,70,59,46,55,49,45,97,73,43,30.21,30.09,6,1,9,0.00
2013-6-6,71,60,46,60,53,45,96,78,59,30.22,30.10,8,1,9,0.00
2013-6-7,65,59,56,64,58,52,97,93,82,30.11,29.78,8,1,15,1.38
2013-6-8,70,64,60,65,62,57,97,90,75,30.03,29.57,14,4,21,0.26
2013-6-9,75,67,56,62,58,54,97,76,57,30.19,30.03,10,3,16,0.26
2013-6-10,75,64,55,64,59,53,96,85,61,30.21,30.00,4,1,7,0.40
2013-6-11,73,66,59,68,64,58,97,93,82,29.99,29.58,13,3,20,0.42
2013-6-12,71,66,56,59,56,53,93,73,61,29.82,29.62,13,4,18,0.00
2013-6-13,67,59,49,60,54,47,97,85,72,29.84,29.59,6,1,12,0.12
2013-6-14,65,58,53,57,53,50,95,85,66,29.78,29.54,12,4,24,0.80
2013-6-15,76,67,59,59,54,48,91,64,38,29.99,29.78,10,3,14,0.80
2013-6-16,76,66,54,64,59,52,96,78,45,29.99,29.80,16,3,20,0.00
2013-6-17,79,69,62,68,63,60,92,82,66,29.95,29.82,9,2,17,0.00
2013-6-18,79,66,56,70,62,55,96,88,67,29.94,29.88,6,1,12,0.00
2013-6-19,73,64,54,60,55,51,95,74,50,30.18,29.85,10,3,15,0.04
2013-6-20,73,62,48,63,56,46,97,80,50,30.32,30.18,7,1,13,0.00
2013-6-21,74,65,53,58,53,49,95,68,45,30.32,30.27,14,1,14,0.00
2013-6-22,76,67,60,63,59,54,95,76,51,30.29,30.20,7,2,14,0.00
2013-6-23,79,71,62,70,66,60,95,85,68,30.22,30.11,7,2,19,0.00
2013-6-24,83,74,68,74,70,66,96,86,69,30.09,29.93,11,4,21,0.00
2013-6-25,86,75,65,73,67,63,94,78,59,29.96,29.79,11,3,16,0.00
2013-6-26,83,74,68,74,69,66,94,83,70,29.86,29.76,14,4,21,0.01
2013-6-27,73,69,65,70,67,63,96,92,86,29.86,29.78,3,1,9,0.01
2013-6-28,74,68,67,73,68,66,97,96,93,29.77,29.59,6,2,13,0.21
2013-6-29,73,69,67,72,68,66,98,95,89,29.79,29.58,5,1,12,0.30
2013-6-30,75,70,67,71,68,66,97,94,81,30.00,29.79,6,1,10,0.04
2013-7-1,76,71,67,72,69,67,97,94,87,30.15,30.00,6,2,12,0.11
2013-7-2,79,72,68,74,70,67,97,93,85,30.25,30.15,8,2,15,0.07
2013-7-3,79,75,71,75,72,70,96,91,83,30.27,30.22,14,4,17,0.07
2013-7-4,82,75,71,76,72,70,97,91,78,30.27,30.17,14,4,21,0.00
2013-7-5,85,77,70,77,72,68,94,86,74,30.21,30.11,16,5,20,0.00
2013-7-6,85,77,71,77,72,69,93,85,71,30.13,30.01,13,5,19,0.00
2013-7-7,87,79,70,77,73,69,96,83,63,30.05,29.95,10,2,14,0.00
2013-7-8,83,76,71,74,71,69,96,84,72,30.07,29.96,12,3,21,0.00
2013-7-9,82,74,70,75,71,69,96,89,73,30.11,30.05,6,1,10,0.00
2013-7-10,82,76,73,76,73,71,96,91,80,30.08,29.86,9,2,23,0.00
2013-7-11,76,74,72,73,72,71,97,94,90,29.92,29.84,7,2,16,0.74
2013-7-12,73,71,68,71,69,66,97,94,87,30.18,29.92,6,2,11,0.74
2013-7-13,82,72,68,77,71,67,97,94,82,30.33,30.18,3,0,8,0.34
2013-7-14,84,76,70,77,73,69,98,90,77,30.33,30.22,9,2,18,0.30
2013-7-15,89,79,72,77,74,70,97,85,64,30.23,30.12,7,1,9,0.30
2013-7-16,90,79,69,77,72,67,97,79,56,30.18,30.10,6,1,8,0.00
2013-7-17,87,76,65,75,70,64,97,81,61,30.20,30.08,5,1,9,0.00
2013-7-18,89,81,75,78,74,71,96,81,65,30.08,29.99,8,2,13,0.00
2013-7-19,88,81,75,80,76,74,96,85,74,29.99,29.81,18,3,25,0.00
2013-7-20,85,80,74,78,75,72,94,85,75,29.83,29.72,14,4,23,0.00
2013-7-21,82,74,65,72,69,64,95,86,67,30.01,29.82,9,1,9,0.28
2013-7-22,81,72,65,74,69,64,97,91,76,30.01,29.90,4,0,7,0.28
2013-7-23,83,76,70,78,74,69,97,92,83,29.89,29.60,9,2,21,0.00
2013-7-24,86,77,69,75,71,67,97,83,57,29.91,29.61,8,2,13,0.00
2013-7-25,73,66,63,66,61,59,94,85,73,30.05,29.91,11,4,18,0.10
2013-7-26,69,66,64,68,65,63,96,94,91,30.05,29.89,17,4,20,0.32
2013-7-27,80,72,65,72,68,63,96,88,73,30.10,30.03,11,2,14,0.32
2013-7-28,81,73,68,74,71,67,97,92,78,30.05,29.95,5,1,11,0.16
2013-7-29,81,73,67,76,71,66,97,91,81,30.07,30.01,4,1,8,0.16
2013-7-30,79,72,65,69,64,60,96,77,56,30.12,30.04,8,2,16,0.00
2013-7-31,79,70,60,66,62,59,97,80,53,30.15,30.09,8,1,11,0.00
2013-8-1,78,68,60,70,65,58,97,89,69,30.09,29.92,5,1,7,0.05
2013-8-2,79,70,63,71,67,62,97,88,68,29.93,29.82,11,2,19,0.09
2013-8-3,73,71,67,69,66,65,93,86,77,29.92,29.84,8,2,15,0.03
2013-8-4,77,69,58,66,61,56,97,78,57,29.89,29.80,8,2,17,0.04
2013-8-5,74,66,58,60,56,50,94,72,44,30.05,29.89,9,2,14,0.00
2013-8-6,77,64,50,62,54,49,97,74,43,30.19,30.06,3,1,7,0.00
2013-8-7,77,63,49,66,55,48,97,78,45,30.21,30.17,5,1,9,0.00
2013-8-8,79,70,55,72,66,54,97,89,70,30.17,30.09,11,1,15,0.10
2013-8-9,74,72,71,73,71,70,96,95,92,30.11,29.84,10,2,25,0.02
2013-8-10,80,74,66,72,67,60,96,79,59,30.03,29.83,10,4,19,0.02
2013-8-11,76,67,58,62,56,53,96,71,47,30.10,30.02,7,2,10,0.00
2013-8-12,75,66,56,71,64,55,97,92,83,30.08,29.96,4,0,7,0.11
2013-8-13,70,68,64,69,67,63,97,97,96,29.95,29.70,2,0,4,0.48
2013-8-14,73,67,62,66,59,55,98,77,55,29.98,29.70,11,3,16,0.49
2013-8-15,74,66,57,58,55,50,90,70,45,30.16,29.98,9,2,12,0.00
2013-8-16,77,67,58,66,60,56,97,80,50,30.23,30.14,4,1,10,0.00
2013-8-17,80,66,52,66,59,51,97,80,50,30.30,30.22,5,1,8,0.00
2013-8-18,79,65,55,69,60,53,98,86,54,30.30,30.11,3,0,6,0.11
2013-8-19,76,67,54,68,63,53,97,86,72,30.12,30.00,9,3,17,0.01
2013-8-20,82,73,66,70,66,63,95,79,57,30.12,30.01,8,2,10,0.01
2013-8-21,84,74,64,71,66,62,95,78,54,30.17,30.08,7,2,12,0.00
2013-8-22,78,73,70,72,70,68,96,90,82,30.08,29.88,8,2,18,0.00
2013-8-23,77,70,60,70,64,57,97,81,53,30.11,29.84,13,2,18,0.00
2013-8-24,74,64,47,61,54,46,96,73,44,30.36,30.11,9,2,16,0.00
2013-8-25,80,64,46,65,55,45,97,75,42,30.39,30.25,8,1,13,0.00
2013-8-26,74,70,67,67,65,59,91,84,75,30.25,29.94,16,4,22,0.00
2013-8-27,73,69,67,70,68,65,97,95,89,29.94,29.85,3,1,13,1.62
2013-8-28,79,71,67,73,68,65,97,90,77,29.96,29.87,4,1,6,1.62
2013-8-29,69,66,60,67,64,57,97,92,87,30.05,29.95,7,2,11,0.01
2013-8-30,74,66,56,68,63,55,97,90,81,30.04,29.89,13,2,16,0.01
2013-8-31,76,72,68,72,70,67,96,92,84,29.91,29.87,12,2,18,0.00
2013-9-1,80,74,70,75,71,69,96,92,83,29.92,29.86,9,2,16,0.00
2013-9-2,81,73,70,76,71,70,97,94,83,29.90,29.76,7,1,14,0.02
2013-9-3,81,71,66,74,70,65,98,95,80,29.84,29.73,4,1,10,0.03
2013-9-4,76,68,63,65,62,60,97,81,67,29.96,29.83,8,2,19,0.03
2013-9-5,72,65,51,67,61,50,96,87,77,30.13,29.91,7,2,15,0.02
2013-9-6,68,58,46,56,49,45,97,77,47,30.25,30.14,6,1,10,0.03
2013-9-7,72,61,45,60,53,44,97,77,52,30.14,29.92,9,2,18,0.01
2013-9-8,78,68,59,66,59,45,89,72,50,30.09,29.78,13,3,17,0.01
2013-9-9,68,58,47,54,49,44,96,74,49,30.26,30.10,6,1,9,0.00
2013-9-10,74,66,53,68,62,51,97,87,75,30.21,30.11,8,2,13,0.00
2013-9-11,82,75,70,75,71,68,94,87,77,30.14,30.04,8,2,14,0.00
2013-9-12,78,73,69,72,70,68,96,90,80,30.06,29.75,9,2,14,0.00
2013-9-13,76,70,64,70,67,60,97,90,77,29.75,29.60,9,2,13,0.32
2013-9-14,69,63,58,60,57,53,91,80,68,30.07,29.75,9,2,13,0.32
2013-9-15,66,58,50,56,52,49,97,81,60,30.19,30.08,7,1,12,0.00
2013-9-16,66,61,52,61,56,47,97,84,65,30.20,30.04,11,2,19,0.02
2013-9-17,59,52,39,47,43,37,95,71,54,30.40,30.20,13,3,18,0.02
2013-9-18,68,53,38,54,44,37,97,76,40,30.35,30.18,6,1,9,0.00
2013-9-19,70,62,53,60,56,51,95,81,62,30.19,30.09,9,3,14,0.01
2013-9-20,75,61,49,64,56,48,97,84,52,30.12,30.05,7,1,9,0.02
2013-9-21,76,64,47,67,60,46,98,89,72,30.08,29.80,6,1,12,0.01
2013-9-22,71,67,58,67,62,50,95,84,68,29.83,29.69,9,3,15,0.10
2013-9-23,64,55,46,52,46,43,95,73,54,30.02,29.82,15,3,16,0.10
2013-9-24,64,54,45,53,46,42,94,76,60,30.02,29.84,10,3,13,0.00
2013-9-25,66,54,39,53,47,38,97,80,58,29.99,29.90,8,1,11,0.00
2013-9-26,62,56,48,52,50,46,96,82,65,30.12,29.98,9,2,12,0.00
2013-9-27,63,58,46,56,53,45,96,84,73,30.27,30.11,9,2,16,0.00
2013-9-28,73,56,43,59,50,42,97,83,57,30.32,30.25,6,1,9,0.00
2013-9-29,67,55,41,58,50,40,97,85,56,30.27,30.11,4,1,8,0.01
2013-9-30,69,60,45,58,55,44,96,85,65,30.10,29.98,9,2,11,0.01
2013-10-1,74,57,43,58,52,42,97,83,55,29.97,29.88,6,1,11,0.00
2013-10-2,76,64,50,63,59,49,97,84,64,29.98,29.87,15,3,19,0.01
2013-10-3,79,65,53,60,56,51,96,75,41,30.10,29.99,5,1,10,0.01
2013-10-4,76,62,52,64,58,51,97,85,66,30.09,30.03,5,1,8,0.00
2013-10-5,69,61,54,63,59,53,97,91,77,30.14,30.06,4,0,6,0.10
2013-10-6,66,60,52,62,56,51,98,88,66,30.21,30.13,3,0,7,0.10
2013-10-7,74,68,64,71,66,62,96,93,85,30.14,29.90,9,2,16,0.17
2013-10-8,66,59,47,65,51,45,96,76,49,30.35,29.91,12,2,14,0.24
2013-10-9,63,56,47,51,48,45,95,74,62,30.43,30.34,9,2,16,0.00
2013-10-10,67,59,52,59,56,49,92,87,75,30.34,30.14,8,2,13,0.00
2013-10-11,68,62,56,61,58,52,94,87,76,30.14,30.08,8,3,13,0.00
2013-10-12,65,59,53,59,54,50,93,85,78,30.36,30.12,9,2,16,0.00
2013-10-13,62,54,42,51,48,40,95,79,63,30.43,30.33,7,1,12,0.00
2013-10-14,64,48,35,53,44,34,97,86,62,30.42,30.29,4,0,6,0.00
2013-10-15,67,51,38,58,44,37,97,81,44,30.29,30.18,6,0,8,0.00
2013-10-16,63,56,42,60,54,41,97,94,88,30.17,29.92,7,1,11,0.00
2013-10-17,66,62,57,61,59,56,96,92,85,29.93,29.77,7,2,12,0.00
2013-10-18,68,62,46,63,56,45,96,84,62,29.94,29.68,13,3,18,0.01
2013-10-19,64,55,42,55,48,40,96,77,56,30.02,29.80,8,1,12,0.01
2013-10-20,61,55,37,59,46,36,96,75,45,30.05,29.74,11,2,18,0.01
2013-10-21,63,49,34,51,42,33,97,79,51,30.15,30.05,10,2,15,0.00
2013-10-22,67,54,40,58,49,39,97,84,64,30.05,29.75,7,1,13,0.01
2013-10-23,54,48,38,45,41,35,95,77,59,29.82,29.59,5,1,11,0.23
2013-10-24,52,49,45,42,35,28,88,60,42,29.93,29.66,13,5,19,0.24
2013-10-25,52,47,43,38,34,30,73,59,49,30.20,29.93,9,4,19,0.00
2013-10-26,58,50,30,44,38,28,95,65,51,30.20,29.92,14,3,22,0.01
2013-10-27,57,53,48,45,38,33,79,57,49,30.10,29.85,13,4,22,0.01
2013-10-28,57,49,31,43,37,29,95,65,51,30.35,30.10,19,3,19,0.00
2013-10-29,53,44,33,40,36,32,94,72,49,30.42,30.35,7,2,12,0.00
2013-10-30,60,46,31,49,41,30,97,85,61,30.39,30.22,9,1,14,0.00
2013-10-31,64,56,41,61,52,40,97,90,76,30.27,29.92,8,2,12,0.00
2013-11-1,69,64,62,65,61,58,95,90,82,29.90,29.59,16,4,21,0.02
2013-11-2,63,58,52,60,55,51,96,90,71,29.73,29.62,6,1,11,0.08
2013-11-3,57,47,40,50,40,25,91,79,55,30.38,29.72,13,4,19,0.03
2013-11-4,45,40,36,32,29,26,84,67,51,30.71,30.38,10,3,19,0.03
2013-11-5,52,41,32,37,34,30,95,76,55,30.72,30.56,3,0,8,0.00
2013-11-6,60,49,35,54,46,34,97,88,71,30.55,30.12,7,1,10,0.00
2013-11-7,63,57,46,62,55,38,96,92,73,30.12,29.71,9,4,18,1.04
2013-11-8,49,44,40,38,30,25,71,59,49,30.14,29.84,15,6,24,1.04
2013-11-9,49,43,38,39,30,26,70,60,46,30.24,30.10,13,4,19,0.00
2013-11-10,58,52,47,47,42,36,84,68,59,30.09,29.76,13,4,27,0.11
2013-11-11,54,48,43,45,35,30,73,62,47,30.13,29.91,14,6,25,0.11
2013-11-12,55,40,31,47,32,21,93,77,57,30.20,29.93,14,4,22,0.12
2013-11-13,37,33,28,23,20,16,72,59,46,30.30,30.19,15,5,18,0.02
2013-11-14,52,46,36,38,33,23,77,61,46,30.24,30.10,17,6,24,0.02
2013-11-15,60,53,50,49,42,32,87,67,48,30.26,30.18,15,3,16,0.00
2013-11-16,60,49,34,46,40,32,95,74,46,30.35,30.24,8,2,11,0.00
2013-11-17,61,52,34,58,49,33,97,92,71,30.35,29.90,5,1,12,0.12
2013-11-18,63,59,53,61,53,41,98,83,60,29.89,29.62,10,4,22,0.40
2013-11-19,54,44,34,41,28,22,62,53,45,30.29,29.70,15,5,21,0.40
2013-11-20,41,33,26,24,20,18,81,60,43,30.62,30.30,12,4,18,0.00
2013-11-21,48,36,24,36,30,23,95,81,56,30.65,30.43,7,1,10,0.00
2013-11-22,54,49,37,53,47,34,96,92,89,30.42,29.86,9,2,16,0.14
2013-11-23,53,45,34,51,31,18,93,60,35,29.91,29.81,15,5,24,0.01
2013-11-24,34,27,24,17,8,0,56,45,30,30.23,29.83,22,9,33,0.01
2013-11-25,41,28,22,33,10,2,78,50,28,30.41,30.23,19,4,22,0.00
2013-11-26,49,44,42,48,37,30,95,76,59,30.36,30.05,13,3,18,0.08
2013-11-27,62,54,41,61,53,36,97,95,83,30.03,29.18,15,6,29,1.37
2013-11-28,41,35,29,36,21,12,83,60,44,30.47,29.53,17,7,26,1.38
2013-11-29,36,32,28,20,16,12,68,54,47,30.74,30.47,12,3,14,0.00
2013-11-30,40,31,23,31,22,12,88,70,51,30.78,30.49,6,1,10,0.00
2013-12-1,50,46,39,48,42,31,96,85,72,30.47,30.00,6,2,12,0.00
2013-12-2,46,41,37,45,39,35,97,95,91,30.00,29.91,5,1,8,0.00
2013-12-3,48,41,34,39,37,32,95,86,62,29.96,29.83,12,3,15,0.01
2013-12-4,45,37,28,36,32,27,94,82,63,30.23,29.97,10,2,12,0.01
2013-12-5,56,47,28,55,45,27,97,94,86,30.24,29.99,4,1,9,0.01
2013-12-6,60,52,38,59,51,37,97,95,92,30.13,29.93,15,3,17,0.26
2013-12-7,41,37,32,37,32,21,95,80,60,30.47,30.06,10,4,14,0.08
2013-12-8,34,32,30,26,22,17,77,65,56,30.61,30.47,10,2,14,0.08
2013-12-9,48,40,32,47,39,26,97,94,75,30.48,29.89,11,3,19,0.50
2013-12-10,39,36,30,37,32,23,95,88,76,30.05,29.81,8,2,13,0.05
2013-12-11,34,32,29,27,23,19,82,70,60,30.29,30.06,13,5,22,0.08
2013-12-12,33,26,20,20,12,4,72,56,39,30.29,30.13,16,4,20,0.08
2013-12-13,33,29,24,22,17,14,83,61,49,30.36,30.06,17,6,24,0.00
2013-12-14,33,25,19,32,19,7,95,79,58,30.59,30.12,11,4,13,0.00
2013-12-15,53,39,32,52,35,24,97,88,67,30.09,29.36,17,6,23,0.69
2013-12-16,36,31,26,26,16,9,73,56,43,30.24,29.80,15,6,22,0.69
2013-12-17,41,27,14,40,21,10,96,79,56,30.29,29.88,10,2,13,0.16
2013-12-18,36,32,23,29,25,22,94,77,59,30.14,29.80,12,6,23,0.01
2013-12-19,49,41,34,38,32,25,78,70,63,30.16,30.02,13,5,22,0.01
2013-12-20,56,45,30,50,40,28,97,85,65,30.17,30.01,17,2,21,0.01
2013-12-21,58,56,52,56,52,50,94,87,79,30.05,29.96,14,5,20,0.00
2013-12-22,61,59,55,59,56,52,95,91,79,30.03,29.90,13,5,23,0.00
2013-12-23,61,47,38,56,46,37,97,94,83,30.08,29.95,10,2,14,0.36
2013-12-24,40,36,31,39,29,21,96,78,61,30.23,30.02,12,4,16,0.01
2013-12-25,31,22,15,23,12,8,89,65,54,30.59,30.23,10,3,21,0.01
2013-12-26,42,34,16,38,30,14,95,86,76,30.54,30.09,18,3,20,0.19
2013-12-27,37,35,32,27,25,22,77,67,58,30.33,30.25,11,5,18,0.19
2013-12-28,51,42,32,40,34,25,87,74,57,30.29,30.06,13,3,25,0.00
2013-12-29,56,47,42,55,43,37,97,86,73,30.10,29.34,18,3,25,0.93
2013-12-30,45,38,26,41,30,17,94,75,48,30.16,29.50,12,5,17,0.93
2013-12-31,30,26,21,22,16,10,73,66,59,30.22,30.07,10,4,19,0.00
2014-1-1,31,27,24,19,13,8,79,56,44,30.42,30.23,14,4,21,0.00
2014-1-2,33,30,27,32,26,15,95,87,59,30.36,29.67,14,4,22,0.00